Time;durP1;ratioP1;P1;durP2;ratioP2;P2;SDS_P1;SDS_P2;PMS_P1;PMS_P2;Temp;Humidity;BMP_temperature;BMP_pressure;BME280_temperature;BME280_humidity;BME280_pressure;Samples;Min_cycle;Max_cycle;Signal;HPM_P1;HPM_P2
2022/09/15 00:01:52;;;;;;;26.30;14.73;;;16.30;99.90;;;-147.18;100.00;67318.16;5026440;28;20045;-84
2022/09/15 00:05:19;;;;;;;20.45;13.30;;;16.30;99.90;;;-147.18;100.00;67318.16;5033044;28;20048;-84
2022/09/15 00:08:45;;;;;;;20.45;12.85;;;16.40;99.90;;;-147.18;100.00;67318.16;5031555;28;20044;-84
2022/09/15 00:12:14;;;;;;;27.48;14.68;;;16.30;99.90;;;-147.18;100.00;67318.16;5028334;28;20041;-84
2022/09/15 00:15:40;;;;;;;24.35;13.82;;;16.30;99.90;;;-147.18;100.00;67318.16;5029891;28;20045;-84
2022/09/15 00:19:06;;;;;;;21.90;12.18;;;16.30;99.90;;;-147.18;100.00;67318.16;5028681;28;20441;-84
2022/09/15 00:22:33;;;;;;;21.92;13.13;;;16.20;99.90;;;-147.18;100.00;67318.16;5049722;22;20040;-78
2022/09/15 00:25:58;;;;;;;26.05;14.25;;;16.20;99.90;;;-147.18;100.00;67318.16;5029124;28;20048;-79
2022/09/15 00:29:24;;;;;;;20.60;12.30;;;16.20;99.90;;;-147.18;100.00;67318.16;5041876;28;20038;-78
2022/09/15 00:32:50;;;;;;;21.65;13.55;;;16.20;99.90;;;-147.18;100.00;67318.16;5032184;28;20125;-78
2022/09/15 00:36:16;;;;;;;23.73;13.02;;;16.10;99.90;;;-147.18;100.00;67318.16;5021100;28;20042;-79
2022/09/15 00:39:43;;;;;;;21.95;13.57;;;16.10;99.90;;;-147.18;100.00;67318.16;5015628;28;20050;-79
2022/09/15 00:43:13;;;;;;;24.98;12.70;;;16.10;99.90;;;-147.18;100.00;67318.16;5014709;28;20038;-79
2022/09/15 00:46:41;;;;;;;24.50;13.82;;;16.10;99.90;;;-147.18;100.00;67318.16;5008505;28;20398;-79
2022/09/15 00:50:13;;;;;;;18.60;13.02;;;16.00;99.90;;;-147.18;100.00;67318.16;5016803;28;20049;-79
2022/09/15 00:53:48;;;;;;;28.10;15.80;;;16.00;99.90;;;-147.18;100.00;67318.16;5019335;28;20391;-79
2022/09/15 00:57:17;;;;;;;23.15;14.25;;;16.00;99.90;;;-147.18;100.00;67318.16;5024097;28;20433;-79
2022/09/15 01:00:46;;;;;;;22.00;13.68;;;16.00;99.90;;;-147.18;100.00;67318.16;5010590;28;20053;-79
2022/09/15 01:04:12;;;;;;;27.95;14.73;;;15.90;99.90;;;-147.18;100.00;67318.16;5021254;28;20148;-79
2022/09/15 01:07:45;;;;;;;23.30;15.00;;;15.90;99.90;;;-147.18;100.00;67318.16;5021401;28;20046;-79
2022/09/15 01:11:15;;;;;;;22.17;13.25;;;15.90;99.90;;;-147.18;100.00;67318.16;5012498;28;20050;-79
2022/09/15 01:14:42;;;;;;;31.15;14.23;;;15.90;99.90;;;-147.18;100.00;67318.16;5003706;28;20144;-79
2022/09/15 01:18:18;;;;;;;25.70;14.27;;;15.80;99.90;;;-147.18;100.00;67318.16;5013366;28;20050;-79
2022/09/15 01:22:21;;;;;;;26.08;15.50;;;15.80;99.90;;;-147.18;100.00;67318.16;5012035;28;20434;-79
2022/09/15 01:26:17;;;;;;;26.88;14.98;;;15.80;99.90;;;-147.18;100.00;67318.16;5007662;28;20049;-79
2022/09/15 01:30:08;;;;;;;27.02;14.30;;;15.70;99.90;;;-147.18;100.00;67318.16;5013339;28;20414;-79
2022/09/15 01:33:49;;;;;;;29.38;15.90;;;15.70;99.90;;;-147.18;100.00;67318.16;5015907;28;20030;-79
2022/09/15 01:37:25;;;;;;;34.70;15.88;;;15.70;99.90;;;-147.18;100.00;67318.16;5008757;28;20034;-79
2022/09/15 01:40:54;;;;;;;27.50;15.18;;;15.60;99.90;;;-147.18;100.00;67318.16;5014381;28;20050;-78
2022/09/15 01:44:24;;;;;;;28.60;14.05;;;15.70;99.90;;;-147.18;100.00;67318.16;5021209;28;20043;-79
2022/09/15 01:47:56;;;;;;;24.13;13.60;;;15.60;99.90;;;-147.18;100.00;67318.16;5021036;28;20038;-79
2022/09/15 01:51:25;;;;;;;21.67;12.05;;;15.60;99.90;;;-147.18;100.00;67318.16;5010150;28;20046;-79
2022/09/15 01:54:54;;;;;;;26.45;12.57;;;15.60;99.90;;;-147.18;100.00;67318.16;5010507;28;20041;-79
2022/09/15 01:58:21;;;;;;;23.10;12.88;;;15.60;99.90;;;-147.18;100.00;67318.16;5009843;28;20076;-78
2022/09/15 02:01:56;;;;;;;27.27;13.35;;;15.50;99.90;;;-147.18;100.00;67318.16;4993049;28;20045;-79
2022/09/15 02:05:30;;;;;;;28.83;13.75;;;15.50;99.90;;;-147.18;100.00;67318.16;5014044;28;20077;-79
2022/09/15 02:09:04;;;;;;;21.73;12.18;;;15.50;99.90;;;-147.18;100.00;67318.16;5017564;28;20040;-79
2022/09/15 02:12:33;;;;;;;23.75;13.35;;;15.40;99.90;;;-147.18;100.00;67318.16;5009996;28;20049;-78
2022/09/15 02:16:03;;;;;;;25.73;13.23;;;15.50;99.90;;;-147.18;100.00;67318.16;5014719;28;20510;-79
2022/09/15 02:19:40;;;;;;;26.60;12.35;;;15.40;99.90;;;-147.18;100.00;67318.16;5027436;28;20053;-79
2022/09/15 02:23:15;;;;;;;21.60;11.93;;;15.40;99.90;;;-147.18;100.00;67318.16;4973610;28;1058714;-79
2022/09/15 02:26:46;;;;;;;21.08;11.80;;;15.40;99.90;;;-147.18;100.00;67318.16;5009718;28;20042;-79
2022/09/15 02:30:18;;;;;;;23.42;12.63;;;15.40;99.90;;;-147.18;100.00;67318.16;5023711;28;20865;-78
2022/09/15 02:33:51;;;;;;;23.63;12.52;;;15.40;99.90;;;-147.18;100.00;67318.16;5010469;28;20057;-79
2022/09/15 02:37:20;;;;;;;23.80;13.10;;;15.40;99.90;;;-147.18;100.00;67318.16;5020940;28;20076;-79
2022/09/15 02:40:50;;;;;;;23.80;12.20;;;15.40;99.90;;;-147.18;100.00;67318.16;5023543;28;20041;-79
2022/09/15 02:44:16;;;;;;;25.70;14.18;;;15.40;99.90;;;-147.18;100.00;67318.16;5009334;28;20631;-78
2022/09/15 02:47:42;;;;;;;23.63;13.70;;;15.40;99.90;;;-147.18;100.00;67318.16;5021592;28;20048;-79
2022/09/15 02:51:09;;;;;;;28.50;15.07;;;15.50;99.90;;;-147.18;100.00;67318.16;5018865;28;20045;-79
2022/09/15 02:54:35;;;;;;;26.98;15.18;;;15.40;99.90;;;-147.18;100.00;67318.16;5009670;28;20052;-79
2022/09/15 02:58:00;;;;;;;24.35;15.18;;;15.40;99.90;;;-147.18;100.00;67318.16;5018467;28;20044;-79
2022/09/15 03:01:31;;;;;;;27.42;15.13;;;15.50;99.90;;;-147.18;100.00;67318.16;5010051;28;20077;-79
2022/09/15 03:04:57;;;;;;;25.10;14.10;;;15.50;99.90;;;-147.18;100.00;67318.16;5009520;28;20045;-79
2022/09/15 03:08:24;;;;;;;25.40;14.18;;;15.50;99.90;;;-147.18;100.00;67318.16;5021562;28;20042;-79
2022/09/15 03:11:49;;;;;;;25.92;14.55;;;15.50;99.90;;;-147.18;100.00;67318.16;5013953;28;20514;-79
2022/09/15 03:15:16;;;;;;;22.25;13.00;;;15.50;99.90;;;-147.18;100.00;67318.16;5018550;28;20042;-79
2022/09/15 03:18:44;;;;;;;24.05;13.35;;;15.50;99.90;;;-147.18;100.00;67318.16;5008790;28;20049;-79
2022/09/15 03:22:12;;;;;;;25.58;13.98;;;15.50;99.90;;;-147.18;100.00;67318.16;5010921;28;20046;-79
2022/09/15 03:25:40;;;;;;;23.50;14.85;;;15.60;99.90;;;-147.18;100.00;67318.16;5006559;28;20064;-79
2022/09/15 03:29:05;;;;;;;28.27;13.98;;;15.60;99.90;;;-147.18;100.00;67318.16;5009676;28;20104;-78
2022/09/15 03:32:31;;;;;;;25.40;15.27;;;15.60;99.90;;;-147.18;100.00;67318.16;5011479;28;20512;-79
2022/09/15 03:35:57;;;;;;;27.30;15.48;;;15.60;99.90;;;-147.18;100.00;67318.16;5008867;28;20045;-78
2022/09/15 03:39:23;;;;;;;24.98;14.05;;;15.70;99.90;;;-147.18;100.00;67318.16;5008904;28;20423;-79
2022/09/15 03:42:50;;;;;;;29.63;15.10;;;15.70;99.90;;;-147.18;100.00;67318.16;5013816;28;20104;-79
2022/09/15 03:46:16;;;;;;;30.98;17.73;;;15.70;99.90;;;-147.18;100.00;67318.16;5010413;28;20050;-79
2022/09/15 03:49:42;;;;;;;35.50;17.85;;;15.80;99.90;;;-147.18;100.00;67318.16;5009290;28;20117;-79
2022/09/15 03:53:07;;;;;;;36.88;18.73;;;15.80;99.90;;;-147.18;100.00;67318.16;5007761;28;20775;-79
2022/09/15 03:56:33;;;;;;;29.27;16.80;;;15.80;99.90;;;-147.18;100.00;67318.16;5022571;28;20233;-79
2022/09/15 04:00:01;;;;;;;32.33;17.33;;;15.90;99.90;;;-147.18;100.00;67318.16;5023067;28;20042;-78
2022/09/15 04:03:30;;;;;;;31.23;17.38;;;15.90;99.90;;;-147.18;100.00;67318.16;5009511;28;20049;-79
2022/09/15 04:06:56;;;;;;;29.55;16.23;;;15.90;99.90;;;-147.18;100.00;67318.16;5014003;28;20046;-79
2022/09/15 04:10:23;;;;;;;32.28;16.33;;;15.90;99.90;;;-147.18;100.00;67318.16;5016603;28;20525;-80
2022/09/15 04:13:49;;;;;;;33.05;17.50;;;15.90;99.90;;;-147.18;100.00;67318.16;5009501;28;20042;-80
2022/09/15 04:17:18;;;;;;;40.75;18.42;;;16.00;99.90;;;-147.18;100.00;67318.16;5003281;28;20048;-78
2022/09/15 04:20:43;;;;;;;29.98;16.92;;;15.90;99.90;;;-147.18;100.00;67318.16;5016501;28;20049;-77
2022/09/15 04:24:09;;;;;;;32.05;17.65;;;16.00;99.90;;;-147.18;100.00;67318.16;5016886;28;20053;-86
2022/09/15 04:27:37;;;;;;;32.72;17.00;;;16.00;99.90;;;-147.18;100.00;67318.16;5007758;28;20436;-80
2022/09/15 04:31:05;;;;;;;28.83;16.77;;;16.00;99.90;;;-147.18;100.00;67318.16;5011575;28;20046;-80
2022/09/15 04:34:32;;;;;;;31.60;17.38;;;16.00;99.90;;;-147.18;100.00;67318.16;5008615;28;20045;-81
2022/09/15 04:37:58;;;;;;;31.33;16.30;;;16.10;99.90;;;-147.18;100.00;67318.16;5011406;28;20094;-81
2022/09/15 04:41:25;;;;;;;28.67;16.02;;;16.10;99.90;;;-147.18;100.00;67318.16;5012124;28;20073;-79
2022/09/15 04:44:50;;;;;;;34.28;17.58;;;16.10;99.90;;;-147.18;100.00;67318.16;5009018;28;20129;-80
2022/09/15 04:48:16;;;;;;;30.48;17.27;;;16.10;99.90;;;-147.18;100.00;67318.16;5012772;28;20050;-80
2022/09/15 04:51:43;;;;;;;37.53;17.48;;;16.10;99.90;;;-147.18;100.00;67318.16;4993008;28;20125;-80
2022/09/15 04:55:09;;;;;;;30.52;16.98;;;16.20;99.90;;;-147.18;100.00;67318.16;5013233;28;20046;-78
2022/09/15 04:58:37;;;;;;;30.00;16.08;;;16.10;99.90;;;-147.18;100.00;67318.16;5017103;28;20057;-79
2022/09/15 05:02:06;;;;;;;32.25;17.50;;;16.10;99.90;;;-147.18;100.00;67318.16;5012084;28;20045;-79
2022/09/15 05:05:33;;;;;;;40.67;18.30;;;16.10;99.90;;;-147.18;100.00;67318.16;5010375;28;20041;-80
2022/09/15 05:09:01;;;;;;;30.63;16.25;;;16.10;99.90;;;-147.18;100.00;67318.16;5030706;28;20046;-79
2022/09/15 05:12:26;;;;;;;29.40;16.92;;;16.10;99.90;;;-147.18;100.00;67318.16;5026866;28;20498;-80
2022/09/15 05:15:52;;;;;;;39.55;18.00;;;16.10;99.90;;;-147.18;100.00;67318.16;5007711;28;20037;-80
2022/09/15 05:19:18;;;;;;;36.40;17.83;;;16.20;99.90;;;-147.18;100.00;67318.16;5011167;28;20034;-79
2022/09/15 05:22:44;;;;;;;29.08;16.50;;;16.30;99.90;;;-147.18;100.00;67318.16;5010975;28;20104;-80
2022/09/15 05:26:12;;;;;;;29.30;16.60;;;16.20;99.90;;;-147.18;100.00;67318.16;5011148;28;20048;-78
2022/09/15 05:29:38;;;;;;;38.33;17.52;;;16.20;99.90;;;-147.18;100.00;67318.16;5031529;28;20038;-79
2022/09/15 05:33:04;;;;;;;29.15;16.55;;;16.20;99.90;;;-147.18;100.00;67318.16;5016604;28;20046;-78
2022/09/15 05:36:30;;;;;;;31.88;16.63;;;16.20;99.90;;;-147.18;100.00;67318.16;5010772;28;20092;-78
2022/09/15 05:39:58;;;;;;;33.45;17.05;;;16.20;99.90;;;-147.18;100.00;67318.16;5010269;28;20045;-78
2022/09/15 05:43:25;;;;;;;31.90;17.35;;;16.20;99.90;;;-147.18;100.00;67318.16;5022524;28;20049;-78
2022/09/15 05:46:53;;;;;;;32.28;17.77;;;16.20;99.90;;;-147.18;100.00;67318.16;5006269;28;20050;-80
2022/09/15 05:50:19;;;;;;;30.67;16.17;;;16.20;99.90;;;-147.18;100.00;67318.16;5009205;28;20062;-78
2022/09/15 05:53:49;;;;;;;31.45;17.33;;;16.20;99.90;;;-147.18;100.00;67318.16;5016469;28;20054;-78
2022/09/15 05:57:16;;;;;;;29.55;16.48;;;16.20;99.90;;;-147.18;100.00;67318.16;5010352;28;20052;-79
2022/09/15 06:00:43;;;;;;;33.88;17.80;;;16.30;99.90;;;-147.18;100.00;67318.16;5010762;28;20034;-79
2022/09/15 06:04:12;;;;;;;32.03;17.80;;;16.30;99.90;;;-147.18;100.00;67318.16;5002687;28;20088;-78
2022/09/15 06:07:38;;;;;;;31.60;18.50;;;16.30;99.90;;;-147.18;100.00;67318.16;5007795;28;20038;-79
2022/09/15 06:11:06;;;;;;;34.05;18.25;;;16.30;99.90;;;-147.18;100.00;67318.16;5010434;28;20034;-77
2022/09/15 06:14:32;;;;;;;33.47;17.90;;;16.30;99.90;;;-147.18;100.00;67318.16;5003112;28;20043;-78
2022/09/15 06:17:59;;;;;;;30.55;17.33;;;16.40;99.90;;;-147.18;100.00;67318.16;5016047;28;20159;-78
2022/09/15 06:21:26;;;;;;;29.30;17.67;;;16.40;99.90;;;-147.18;100.00;67318.16;5016963;28;20044;-77
2022/09/15 06:24:52;;;;;;;34.45;18.52;;;16.40;99.90;;;-147.18;100.00;67318.16;5025375;28;20049;-78
2022/09/15 06:28:18;;;;;;;31.17;18.23;;;16.40;99.90;;;-147.18;100.00;67318.16;5049694;23;20043;-77
2022/09/15 06:31:44;;;;;;;31.05;17.40;;;16.40;99.90;;;-147.18;100.00;67318.16;5049567;28;20401;-77
2022/09/15 06:35:11;;;;;;;31.42;17.42;;;16.40;99.90;;;-147.18;100.00;67318.16;5037908;28;20120;-77
2022/09/15 06:38:36;;;;;;;29.15;18.02;;;16.50;99.90;;;-147.18;100.00;67318.16;5049198;28;20505;-76
2022/09/15 06:42:03;;;;;;;37.83;19.13;;;16.50;99.90;;;-147.18;100.00;67318.16;5045190;28;20045;-78
2022/09/15 06:45:29;;;;;;;34.38;18.48;;;16.50;99.90;;;-147.18;100.00;67318.16;5044448;28;20047;-78
2022/09/15 06:48:54;;;;;;;29.52;17.95;;;16.60;99.90;;;-147.18;100.00;67318.16;5043304;28;20041;-77
2022/09/15 06:52:23;;;;;;;42.60;18.35;;;16.60;99.90;;;-147.18;100.00;67318.16;5046484;28;21355;-77
2022/09/15 06:55:49;;;;;;;35.10;18.10;;;16.60;99.90;;;-147.18;100.00;67318.16;5043230;28;20047;-77
2022/09/15 06:59:15;;;;;;;33.15;17.58;;;16.60;99.90;;;-147.18;100.00;67318.16;5037752;28;20044;-78
2022/09/15 07:02:41;;;;;;;26.88;16.63;;;16.70;99.90;;;-147.18;100.00;67318.16;5041163;28;20048;-77
2022/09/15 07:06:08;;;;;;;33.33;16.63;;;16.70;99.90;;;-147.18;100.00;67318.16;5045572;28;20060;-78
2022/09/15 07:09:35;;;;;;;27.27;16.52;;;16.70;99.90;;;-147.18;100.00;67318.16;5049351;28;20041;-77
2022/09/15 07:13:02;;;;;;;27.48;16.30;;;16.70;99.90;;;-147.18;100.00;67318.16;5042577;28;20055;-77
2022/09/15 07:16:27;;;;;;;33.70;16.10;;;16.80;99.90;;;-147.18;100.00;67318.16;5032508;28;20065;-77
2022/09/15 07:19:54;;;;;;;33.08;16.38;;;16.80;99.90;;;-147.18;100.00;67318.16;5041313;28;20485;-77
2022/09/15 07:23:35;;;;;;;31.20;15.73;;;16.80;99.90;;;-147.18;100.00;67318.16;5037179;28;20037;-77
2022/09/15 07:27:07;;;;;;;28.17;15.60;;;16.80;99.90;;;-147.18;100.00;67318.16;5028271;28;20510;-76
2022/09/15 07:30:33;;;;;;;28.95;15.90;;;16.80;99.90;;;-147.18;100.00;67318.16;5026363;28;20445;-77
2022/09/15 07:33:59;;;;;;;27.92;15.63;;;16.90;99.90;;;-147.18;100.00;67318.16;5042737;28;20052;-76
2022/09/15 07:37:25;;;;;;;27.60;15.00;;;16.90;99.90;;;-147.18;100.00;67318.16;5044313;28;20041;-78
2022/09/15 07:40:51;;;;;;;26.92;14.95;;;17.00;99.90;;;-147.18;100.00;67318.16;5036744;28;20053;-78
2022/09/15 07:44:18;;;;;;;27.10;15.50;;;17.10;99.90;;;-147.18;100.00;67318.16;5026097;28;20463;-78
2022/09/15 07:47:44;;;;;;;32.92;15.18;;;17.10;99.90;;;-147.18;100.00;67318.16;5048725;28;20041;-77
2022/09/15 07:51:10;;;;;;;28.15;14.50;;;17.20;99.90;;;-147.18;100.00;67318.16;5044829;28;20115;-78
2022/09/15 07:54:35;;;;;;;26.83;15.27;;;17.20;99.90;;;-147.18;100.00;67318.16;5046305;28;20799;-77
2022/09/15 07:58:01;;;;;;;32.38;13.50;;;17.30;99.90;;;-147.18;100.00;67318.16;5048475;28;20055;-78
2022/09/15 08:01:28;;;;;;;27.40;13.20;;;17.30;99.90;;;-147.18;100.00;67318.16;5040980;28;20546;-77
2022/09/15 08:04:54;;;;;;;22.25;11.18;;;17.40;99.90;;;-147.18;100.00;67318.16;5038852;28;20116;-78
2022/09/15 08:08:19;;;;;;;25.17;11.10;;;17.40;99.90;;;-147.18;100.00;67318.16;5028909;28;20045;-78
2022/09/15 08:11:45;;;;;;;21.48;12.60;;;17.50;99.90;;;-147.18;100.00;67318.16;5034094;28;20037;-78
2022/09/15 08:15:11;;;;;;;22.70;12.75;;;17.50;99.90;;;-147.18;100.00;67318.16;5049509;28;20042;-78
2022/09/15 08:18:38;;;;;;;21.63;12.35;;;17.50;99.90;;;-147.18;100.00;67318.16;5032799;28;20051;-78
2022/09/15 08:22:05;;;;;;;23.25;12.60;;;17.60;99.90;;;-147.18;100.00;67318.16;5045681;28;20040;-78
2022/09/15 08:25:30;;;;;;;22.20;11.82;;;17.60;99.90;;;-147.18;100.00;67318.16;5047988;28;20037;-78
2022/09/15 08:28:56;;;;;;;21.45;11.35;;;17.60;99.90;;;-147.18;100.00;67318.16;5044538;28;20048;-78
2022/09/15 08:32:22;;;;;;;22.52;11.55;;;17.70;99.90;;;-147.18;100.00;67318.16;5046149;28;20049;-78
2022/09/15 08:35:49;;;;;;;25.65;10.73;;;17.70;99.90;;;-147.18;100.00;67318.16;5044201;28;20045;-78
2022/09/15 08:39:15;;;;;;;23.42;12.15;;;17.80;99.90;;;-147.18;100.00;67318.16;5046550;28;20059;-78
2022/09/15 08:42:43;;;;;;;22.05;11.77;;;17.80;99.90;;;-147.18;100.00;67318.16;5030399;28;20418;-78
2022/09/15 08:46:20;;;;;;;21.15;11.18;;;17.80;99.90;;;-147.18;100.00;67318.16;5047156;28;20497;-79
2022/09/15 08:49:56;;;;;;;23.20;11.45;;;17.90;99.90;;;-147.18;100.00;67318.16;5051362;28;20065;-78
2022/09/15 08:53:32;;;;;;;18.20;9.15;;;17.90;99.90;;;-147.18;100.00;67318.16;5047340;28;20110;-78
2022/09/15 08:57:00;;;;;;;19.92;9.95;;;17.90;99.90;;;-147.18;100.00;67318.16;5051102;28;20036;-77
2022/09/15 09:00:31;;;;;;;16.42;8.70;;;17.90;99.90;;;-147.18;100.00;67318.16;5044660;28;20067;-79
2022/09/15 09:04:30;;;;;;;19.40;8.20;;;17.90;99.90;;;-147.18;100.00;67318.16;5029259;28;20044;-78
2022/09/15 09:08:18;;;;;;;22.88;8.00;;;18.00;99.90;;;-147.18;100.00;67318.16;5014347;28;20049;-78
2022/09/15 09:11:58;;;;;;;12.77;6.60;;;18.00;99.90;;;-147.18;100.00;67318.16;5031915;28;20124;-78
2022/09/15 09:15:40;;;;;;;11.38;5.75;;;18.10;99.90;;;-147.18;100.00;67318.16;5047590;28;20037;-76
2022/09/15 09:19:33;;;;;;;14.20;5.25;;;18.10;99.90;;;-147.18;100.00;67318.16;5051097;28;20041;-75
2022/09/15 09:23:07;;;;;;;10.70;3.45;;;18.10;99.90;;;-147.18;100.00;67318.16;5045933;28;20052;-76
2022/09/15 09:26:35;;;;;;;9.38;2.80;;;18.20;99.90;;;-147.18;100.00;67318.16;5040602;28;20045;-76
2022/09/15 09:30:10;;;;;;;7.75;1.63;;;18.20;99.90;;;-147.18;100.00;67318.16;5039872;28;20406;-75
2022/09/15 09:33:42;;;;;;;12.20;2.20;;;18.20;99.90;;;-147.18;100.00;67318.16;5038718;28;20049;-79
2022/09/15 09:37:14;;;;;;;11.02;2.20;;;18.20;99.90;;;-147.18;100.00;67318.16;5039735;28;20048;-78
2022/09/15 09:40:41;;;;;;;11.30;1.80;;;18.30;99.90;;;-147.18;100.00;67318.16;5039544;28;20099;-79
2022/09/15 09:44:10;;;;;;;9.35;1.88;;;18.30;99.90;;;-147.18;100.00;67318.16;5040466;28;20128;-78
2022/09/15 09:47:36;;;;;;;9.30;1.90;;;18.30;99.90;;;-147.18;100.00;67318.16;5039171;28;20048;-78
2022/09/15 09:51:02;;;;;;;11.02;2.28;;;18.30;99.90;;;-147.18;100.00;67318.16;5040600;28;20120;-77
2022/09/15 09:54:31;;;;;;;6.45;1.60;;;18.30;99.90;;;-147.18;100.00;67318.16;5041092;28;20038;-78
2022/09/15 09:58:22;;;;;;;9.40;2.30;;;18.30;99.90;;;-147.18;100.00;67318.16;5040663;28;20129;-78
2022/09/15 10:02:03;;;;;;;9.30;1.88;;;18.30;99.90;;;-147.18;100.00;67318.16;5039304;28;20523;-75
2022/09/15 10:05:29;;;;;;;6.32;1.52;;;18.40;99.90;;;-147.18;100.00;67318.16;5039748;28;20049;-75
2022/09/15 10:09:07;;;;;;;10.63;2.15;;;18.30;99.90;;;-147.18;100.00;67318.16;5040348;28;20049;-76
2022/09/15 10:12:42;;;;;;;10.88;2.22;;;18.30;99.90;;;-147.18;100.00;67318.16;5040876;28;20045;-75
2022/09/15 10:16:23;;;;;;;7.47;1.98;;;18.30;99.90;;;-147.18;100.00;67318.16;5039212;28;20041;-77
2022/09/15 10:19:49;;;;;;;6.28;1.77;;;18.30;99.90;;;-147.18;100.00;67318.16;5039994;28;20045;-76
2022/09/15 10:23:29;;;;;;;8.13;1.90;;;18.30;99.90;;;-147.18;100.00;67318.16;5037509;28;20432;-79
2022/09/15 10:27:19;;;;;;;7.75;1.60;;;18.30;99.90;;;-147.18;100.00;67318.16;5034804;28;20057;-76
2022/09/15 10:30:58;;;;;;;6.57;1.50;;;18.40;99.90;;;-147.18;100.00;67318.16;5039783;28;20059;-76
2022/09/15 10:34:30;;;;;;;10.10;1.83;;;18.40;99.90;;;-147.18;100.00;67318.16;5036811;28;20042;-76
2022/09/15 10:38:11;;;;;;;7.00;1.73;;;18.50;99.90;;;-147.18;100.00;67318.16;5037493;28;20045;-77
2022/09/15 10:41:46;;;;;;;10.77;2.57;;;18.50;99.90;;;-147.18;100.00;67318.16;5038615;28;20045;-76
2022/09/15 10:45:25;;;;;;;8.30;2.42;;;18.50;99.90;;;-147.18;100.00;67318.16;5038538;28;20046;-76
2022/09/15 10:49:24;;;;;;;10.50;2.35;;;18.50;99.90;;;-147.18;100.00;67318.16;5038642;28;20099;-76
2022/09/15 10:53:05;;;;;;;15.43;2.50;;;18.50;99.90;;;-147.18;100.00;67318.16;5039245;28;20041;-76
2022/09/15 10:56:41;;;;;;;8.40;2.75;;;18.50;99.90;;;-147.18;100.00;67318.16;5037625;28;20045;-76
2022/09/15 11:00:23;;;;;;;11.00;2.58;;;18.50;99.90;;;-147.18;100.00;67318.16;5036607;28;20037;-77
2022/09/15 11:04:38;;;;;;;8.15;2.80;;;18.50;99.90;;;-147.18;100.00;67318.16;5039721;28;20068;-77
2022/09/15 11:08:25;;;;;;;10.43;2.45;;;18.50;99.90;;;-147.18;100.00;67318.16;5037186;28;20144;-77
2022/09/15 11:12:15;;;;;;;10.75;2.80;;;18.40;99.90;;;-147.18;100.00;67318.16;5038752;28;20049;-77
2022/09/15 11:16:00;;;;;;;6.68;2.25;;;18.30;99.90;;;-147.18;100.00;67318.16;5033846;28;20990;-77
2022/09/15 11:20:09;;;;;;;9.32;1.92;;;18.30;99.90;;;-147.18;100.00;67318.16;5036729;28;20033;-76
2022/09/15 11:23:40;;;;;;;6.55;1.40;;;18.20;99.90;;;-147.18;100.00;67318.16;5037412;28;20052;-77
2022/09/15 11:27:13;;;;;;;8.40;1.60;;;18.10;99.90;;;-147.18;100.00;67318.16;5038510;28;20108;-77
2022/09/15 11:30:59;;;;;;;4.38;1.50;;;18.00;99.90;;;-147.18;100.00;67318.16;5038134;28;20046;-75
2022/09/15 11:34:30;;;;;;;6.68;1.70;;;17.90;99.90;;;-147.18;100.00;67318.16;5037346;28;20719;-75
2022/09/15 11:38:10;;;;;;;7.70;1.85;;;17.90;99.90;;;-147.18;100.00;67318.16;5037145;28;20057;-77
2022/09/15 11:41:40;;;;;;;9.48;2.30;;;17.80;99.90;;;-147.18;100.00;67318.16;5037432;28;20049;-77
2022/09/15 11:45:30;;;;;;;7.75;1.90;;;17.80;99.90;;;-147.18;100.00;67318.16;5022914;28;20052;-75
2022/09/15 11:49:01;;;;;;;9.15;1.83;;;17.80;99.90;;;-147.18;100.00;67318.16;5041402;28;20037;-77
2022/09/15 11:52:44;;;;;;;7.77;2.30;;;17.70;99.90;;;-147.18;100.00;67318.16;5043000;28;20120;-77
2022/09/15 11:56:24;;;;;;;6.55;2.00;;;17.70;99.90;;;-147.18;100.00;67318.16;5041072;28;20041;-77
2022/09/15 12:00:03;;;;;;;10.40;2.30;;;17.80;99.90;;;-147.18;100.00;67318.16;5042216;28;20069;-77
2022/09/15 12:03:38;;;;;;;7.30;2.35;;;17.80;99.90;;;-147.18;100.00;67318.16;5041756;28;20054;-77
2022/09/15 12:07:13;;;;;;;11.02;2.47;;;17.90;99.90;;;-147.18;100.00;67318.16;5041719;28;20041;-77
2022/09/15 12:10:41;;;;;;;8.80;2.80;;;17.90;99.90;;;-147.18;100.00;67318.16;5040544;28;20041;-77
2022/09/15 12:14:16;;;;;;;6.38;2.33;;;18.00;99.90;;;-147.18;100.00;67318.16;5040277;28;20043;-75
2022/09/15 12:17:47;;;;;;;12.35;3.35;;;18.00;99.90;;;-147.18;100.00;67318.16;5040019;28;20498;-75
2022/09/15 12:25:16;;;;;;;9.85;2.95;;;18.10;99.90;;;-147.18;100.00;67318.16;5019031;28;20060;-77
2022/09/15 12:28:53;;;;;;;9.60;3.22;;;18.10;99.90;;;-147.18;100.00;67318.16;5039422;28;20064;-77
2022/09/15 12:32:49;;;;;;;10.13;2.92;;;18.20;99.90;;;-147.18;100.00;67318.16;5024537;28;20506;-77
2022/09/15 12:36:31;;;;;;;11.35;3.15;;;18.20;99.90;;;-147.18;100.00;67318.16;4996968;28;20416;-77
2022/09/15 12:39:57;;;;;;;8.60;3.53;;;18.20;99.90;;;-147.18;100.00;67318.16;5056041;23;20048;-81
2022/09/15 12:43:26;;;;;;;10.75;3.40;;;18.30;99.90;;;-147.18;100.00;67318.16;5061693;28;20036;-81
2022/09/15 12:46:56;;;;;;;15.38;3.92;;;18.30;99.90;;;-147.18;100.00;67318.16;5064517;28;20178;-79
2022/09/15 12:50:30;;;;;;;10.80;3.70;;;18.20;99.90;;;-147.18;100.00;67318.16;5064915;28;20416;-79
2022/09/15 12:53:59;;;;;;;11.75;4.05;;;18.20;99.90;;;-147.18;100.00;67318.16;5066593;28;20047;-79
2022/09/15 12:57:29;;;;;;;11.27;3.50;;;18.20;99.90;;;-147.18;100.00;67318.16;5060182;28;20101;-79
2022/09/15 13:01:48;;;;;;;11.63;3.72;;;18.20;99.90;;;-147.18;100.00;67318.16;5064928;28;20057;-79
2022/09/15 13:06:15;;;;;;;9.50;3.45;;;18.10;99.90;;;-147.18;100.00;67318.16;5064955;28;20044;-78
2022/09/15 13:09:57;;;;;;;8.73;3.17;;;18.20;99.90;;;-147.18;100.00;67318.16;5062720;28;20037;-78
2022/09/15 13:13:29;;;;;;;10.23;3.58;;;18.10;99.90;;;-147.18;100.00;67318.16;5062499;28;20563;-81
2022/09/15 13:16:59;;;;;;;7.53;3.17;;;18.10;99.90;;;-147.18;100.00;67318.16;5057987;28;20033;-81
2022/09/15 13:20:38;;;;;;;12.13;3.00;;;18.10;99.90;;;-147.18;100.00;67318.16;5046114;28;20496;-79
2022/09/15 13:24:09;;;;;;;8.48;2.72;;;18.20;99.90;;;-147.18;100.00;67318.16;5054397;28;20572;-79
2022/09/15 13:27:36;;;;;;;7.15;2.58;;;18.20;99.90;;;-147.18;100.00;67318.16;5048187;28;20045;-79
2022/09/15 13:31:17;;;;;;;9.40;2.30;;;18.20;99.90;;;-147.18;100.00;67318.16;5049969;28;20049;-79
2022/09/15 13:35:21;;;;;;;8.45;2.25;;;18.20;99.90;;;-147.18;100.00;67318.16;5052603;28;20412;-79
2022/09/15 13:39:36;;;;;;;8.27;2.45;;;18.30;99.90;;;-147.18;100.00;67318.16;5052276;28;20045;-79
2022/09/15 13:43:44;;;;;;;18.58;2.08;;;18.30;99.90;;;-147.18;100.00;67318.16;5048113;28;20041;-79
2022/09/15 13:47:23;;;;;;;8.82;2.35;;;18.40;99.90;;;-147.18;100.00;67318.16;5019730;28;20079;-79
2022/09/15 13:51:06;;;;;;;4.93;1.77;;;18.40;99.90;;;-147.18;100.00;67318.16;5049642;28;20051;-79
2022/09/15 13:55:07;;;;;;;7.03;1.52;;;18.50;99.90;;;-147.18;100.00;67318.16;5047801;28;20036;-79
2022/09/15 13:58:33;;;;;;;10.68;1.90;;;18.50;99.90;;;-147.18;100.00;67318.16;5045345;28;20060;-79
2022/09/15 14:02:00;;;;;;;6.95;1.70;;;18.50;99.90;;;-147.18;100.00;67318.16;5045903;28;20048;-79
2022/09/15 14:05:29;;;;;;;7.25;1.60;;;18.50;99.90;;;-147.18;100.00;67318.16;5046060;28;20033;-79
2022/09/15 14:09:02;;;;;;;4.35;1.63;;;18.50;99.90;;;-147.18;100.00;67318.16;5047590;28;20041;-79
2022/09/15 14:12:30;;;;;;;7.57;2.20;;;18.50;99.90;;;-147.18;100.00;67318.16;5045494;28;20044;-79
2022/09/15 14:15:59;;;;;;;10.75;2.05;;;18.50;99.90;;;-147.18;100.00;67318.16;5045277;28;20059;-79